sensor_id;sensor_type;location;lat;lon;timestamp;temperature;humidity
31975;DHT22;18500;43.618;1.474;2023-03-21T06:47:42;5.70;1.00
31975;DHT22;18500;43.618;1.474;2023-03-21T06:50:09;5.80;1.00
31975;DHT22;18500;43.618;1.474;2023-03-21T06:52:35;6.00;1.00
31975;DHT22;18500;43.618;1.474;2023-03-21T06:55:00;6.10;1.00
31975;DHT22;18500;43.618;1.474;2023-03-21T06:57:26;6.10;1.00
31975;DHT22;18500;43.618;1.474;2023-03-21T06:59:52;6.20;1.00
31975;DHT22;18500;43.618;1.474;2023-03-21T07:02:17;6.30;1.00
31975;DHT22;18500;43.618;1.474;2023-03-21T07:04:43;6.40;1.00
31975;DHT22;18500;43.618;1.474;2023-03-21T07:07:09;6.50;1.00
31975;DHT22;18500;43.618;1.474;2023-03-21T07:09:34;6.60;1.00
31975;DHT22;18500;43.618;1.474;2023-03-21T07:12:01;6.70;1.00
31975;DHT22;18500;43.618;1.474;2023-03-21T07:14:26;6.90;1.00
31975;DHT22;18500;43.618;1.474;2023-03-21T07:16:52;6.90;1.00
31975;DHT22;18500;43.618;1.474;2023-03-21T07:19:18;7.00;1.00
31975;DHT22;18500;43.618;1.474;2023-03-21T07:21:43;7.00;1.00
31975;DHT22;18500;43.618;1.474;2023-03-21T07:24:09;7.10;1.00
31975;DHT22;18500;43.618;1.474;2023-03-21T07:26:34;7.20;1.00
31975;DHT22;18500;43.618;1.474;2023-03-21T07:29:00;7.30;1.00
31975;DHT22;18500;43.618;1.474;2023-03-21T07:31:26;7.40;1.00
31975;DHT22;18500;43.618;1.474;2023-03-21T07:33:52;7.50;1.00
31975;DHT22;18500;43.618;1.474;2023-03-21T07:36:18;7.50;1.00
31975;DHT22;18500;43.618;1.474;2023-03-21T07:38:44;7.60;1.00
31975;DHT22;18500;43.618;1.474;2023-03-21T07:41:11;7.60;1.00
31975;DHT22;18500;43.618;1.474;2023-03-21T07:43:37;7.60;1.00
31975;DHT22;18500;43.618;1.474;2023-03-21T07:46:03;7.70;1.00
31975;DHT22;18500;43.618;1.474;2023-03-21T07:48:29;7.80;1.00
31975;DHT22;18500;43.618;1.474;2023-03-21T07:50:55;8.00;1.00
31975;DHT22;18500;43.618;1.474;2023-03-21T07:53:21;8.10;1.00
31975;DHT22;18500;43.618;1.474;2023-03-21T07:55:55;8.10;1.00
31975;DHT22;18500;43.618;1.474;2023-03-21T07:58:25;8.20;1.00
31975;DHT22;18500;43.618;1.474;2023-03-21T08:00:51;8.40;1.00
31975;DHT22;18500;43.618;1.474;2023-03-21T08:03:18;8.50;1.00
31975;DHT22;18500;43.618;1.474;2023-03-21T08:05:43;8.60;1.00
31975;DHT22;18500;43.618;1.474;2023-03-21T08:08:10;8.60;1.00
31975;DHT22;18500;43.618;1.474;2023-03-21T08:10:35;8.80;1.00
31975;DHT22;18500;43.618;1.474;2023-03-21T08:13:01;8.90;1.00
31975;DHT22;18500;43.618;1.474;2023-03-21T08:15:27;9.00;1.00
31975;DHT22;18500;43.618;1.474;2023-03-21T08:17:53;9.10;1.00
31975;DHT22;18500;43.618;1.474;2023-03-21T08:20:20;9.20;1.00
31975;DHT22;18500;43.618;1.474;2023-03-21T08:22:47;9.40;1.00
31975;DHT22;18500;43.618;1.474;2023-03-21T08:25:14;9.50;1.00
31975;DHT22;18500;43.618;1.474;2023-03-21T08:27:41;9.60;1.00
31975;DHT22;18500;43.618;1.474;2023-03-21T08:30:09;9.60;1.00
31975;DHT22;18500;43.618;1.474;2023-03-21T08:32:35;9.40;1.00
31975;DHT22;18500;43.618;1.474;2023-03-21T08:35:05;9.50;1.00
31975;DHT22;18500;43.618;1.474;2023-03-21T08:37:35;9.50;1.00
31975;DHT22;18500;43.618;1.474;2023-03-21T08:40:01;9.60;1.00
31975;DHT22;18500;43.618;1.474;2023-03-21T08:42:26;9.80;1.00
31975;DHT22;18500;43.618;1.474;2023-03-21T08:44:52;9.80;1.00
31975;DHT22;18500;43.618;1.474;2023-03-21T08:47:17;9.80;1.00
31975;DHT22;18500;43.618;1.474;2023-03-21T08:49:43;9.90;1.00
31975;DHT22;18500;43.618;1.474;2023-03-21T08:52:10;10.00;1.00
31975;DHT22;18500;43.618;1.474;2023-03-21T08:54:36;10.10;1.00
31975;DHT22;18500;43.618;1.474;2023-03-21T08:57:02;10.10;1.00
31975;DHT22;18500;43.618;1.474;2023-03-21T08:59:29;10.20;1.00
31975;DHT22;18500;43.618;1.474;2023-03-21T09:01:55;10.20;1.00
31975;DHT22;18500;43.618;1.474;2023-03-21T09:04:20;10.50;1.00
31975;DHT22;18500;43.618;1.474;2023-03-21T09:06:46;10.60;1.00
31975;DHT22;18500;43.618;1.474;2023-03-21T09:09:14;10.60;1.00
31975;DHT22;18500;43.618;1.474;2023-03-21T09:11:40;10.70;1.00
31975;DHT22;18500;43.618;1.474;2023-03-21T09:14:06;10.80;1.00
31975;DHT22;18500;43.618;1.474;2023-03-21T09:16:32;11.10;1.00
31975;DHT22;18500;43.618;1.474;2023-03-21T09:18:58;11.20;1.00
31975;DHT22;18500;43.618;1.474;2023-03-21T09:21:26;11.30;1.00
31975;DHT22;18500;43.618;1.474;2023-03-21T09:23:53;11.30;1.00
31975;DHT22;18500;43.618;1.474;2023-03-21T09:26:21;11.50;1.00
31975;DHT22;18500;43.618;1.474;2023-03-21T09:28:48;11.70;1.00
31975;DHT22;18500;43.618;1.474;2023-03-21T09:31:15;11.70;1.00
31975;DHT22;18500;43.618;1.474;2023-03-21T09:33:48;11.80;1.00
31975;DHT22;18500;43.618;1.474;2023-03-21T09:36:14;11.90;1.00
31975;DHT22;18500;43.618;1.474;2023-03-21T09:38:40;11.80;1.00
31975;DHT22;18500;43.618;1.474;2023-03-21T09:41:15;11.80;1.00
31975;DHT22;18500;43.618;1.474;2023-03-21T09:49:28;11.90;1.00
31975;DHT22;18500;43.618;1.474;2023-03-21T09:51:57;11.80;1.00
31975;DHT22;18500;43.618;1.474;2023-03-21T09:54:37;11.80;1.00
31975;DHT22;18500;43.618;1.474;2023-03-21T09:59:44;12.10;1.00
31975;DHT22;18500;43.618;1.474;2023-03-21T10:02:37;12.10;1.00
31975;DHT22;18500;43.618;1.474;2023-03-21T10:05:37;12.10;1.00
31975;DHT22;18500;43.618;1.474;2023-03-21T10:08:34;12.10;1.00
31975;DHT22;18500;43.618;1.474;2023-03-21T10:11:21;12.00;1.00
31975;DHT22;18500;43.618;1.474;2023-03-21T10:16:29;12.10;1.00
31975;DHT22;18500;43.618;1.474;2023-03-21T10:18:57;12.10;1.00
31975;DHT22;18500;43.618;1.474;2023-03-21T10:21:25;12.30;1.00
31975;DHT22;18500;43.618;1.474;2023-03-21T10:23:53;12.40;1.00
31975;DHT22;18500;43.618;1.474;2023-03-21T10:26:21;12.50;1.00
31975;DHT22;18500;43.618;1.474;2023-03-21T10:28:48;12.50;1.00
31975;DHT22;18500;43.618;1.474;2023-03-21T10:31:17;12.50;1.00
31975;DHT22;18500;43.618;1.474;2023-03-21T10:33:46;12.60;1.00
31975;DHT22;18500;43.618;1.474;2023-03-21T10:36:18;12.80;1.00
31975;DHT22;18500;43.618;1.474;2023-03-21T10:38:51;13.00;1.00
31975;DHT22;18500;43.618;1.474;2023-03-21T10:41:18;13.20;1.00
31975;DHT22;18500;43.618;1.474;2023-03-21T10:43:46;13.40;1.00
31975;DHT22;18500;43.618;1.474;2023-03-21T10:46:19;13.60;1.00
31975;DHT22;18500;43.618;1.474;2023-03-21T10:48:52;13.70;1.00
31975;DHT22;18500;43.618;1.474;2023-03-21T10:51:24;13.80;1.00
31975;DHT22;18500;43.618;1.474;2023-03-21T10:53:58;14.00;1.00
31975;DHT22;18500;43.618;1.474;2023-03-21T10:56:30;14.10;1.00
31975;DHT22;18500;43.618;1.474;2023-03-21T10:58:58;14.30;1.00
31975;DHT22;18500;43.618;1.474;2023-03-21T11:01:47;14.40;1.00
31975;DHT22;18500;43.618;1.474;2023-03-21T11:04:16;14.40;1.00
31975;DHT22;18500;43.618;1.474;2023-03-21T11:06:49;14.30;1.00
31975;DHT22;18500;43.618;1.474;2023-03-21T11:09:18;14.40;1.00
31975;DHT22;18500;43.618;1.474;2023-03-21T11:12:09;14.60;1.00
31975;DHT22;18500;43.618;1.474;2023-03-21T11:14:41;14.70;1.00
31975;DHT22;18500;43.618;1.474;2023-03-21T11:20:06;15.10;1.00
31975;DHT22;18500;43.618;1.474;2023-03-21T11:22:40;15.40;1.00
31975;DHT22;18500;43.618;1.474;2023-03-21T11:25:09;15.40;1.00
31975;DHT22;18500;43.618;1.474;2023-03-21T11:27:49;15.60;1.00
31975;DHT22;18500;43.618;1.474;2023-03-21T11:30:21;15.40;1.00
31975;DHT22;18500;43.618;1.474;2023-03-21T11:32:55;15.50;1.00
31975;DHT22;18500;43.618;1.474;2023-03-21T11:35:44;15.60;1.00
31975;DHT22;18500;43.618;1.474;2023-03-21T11:38:25;15.80;1.00
31975;DHT22;18500;43.618;1.474;2023-03-21T11:40:55;15.90;1.00
31975;DHT22;18500;43.618;1.474;2023-03-21T11:46:07;15.90;1.00
31975;DHT22;18500;43.618;1.474;2023-03-21T11:48:42;16.20;1.00
31975;DHT22;18500;43.618;1.474;2023-03-21T11:53:54;16.30;1.00
31975;DHT22;18500;43.618;1.474;2023-03-21T11:56:31;16.50;1.00
31975;DHT22;18500;43.618;1.474;2023-03-21T12:01:46;16.70;1.00
31975;DHT22;18500;43.618;1.474;2023-03-21T12:13:16;17.00;1.00
31975;DHT22;18500;43.618;1.474;2023-03-21T12:24:25;17.10;1.00
31975;DHT22;18500;43.618;1.474;2023-03-21T12:38:14;18.30;1.00
31975;DHT22;18500;43.618;1.474;2023-03-21T12:43:54;19.90;1.00
31975;DHT22;18500;43.618;1.474;2023-03-21T12:49:15;20.30;1.00
31975;DHT22;18500;43.618;1.474;2023-03-21T12:51:51;19.40;1.00
31975;DHT22;18500;43.618;1.474;2023-03-21T12:57:14;18.50;1.00
31975;DHT22;18500;43.618;1.474;2023-03-21T13:03:03;17.70;1.00
31975;DHT22;18500;43.618;1.474;2023-03-21T13:05:36;17.80;1.00
31975;DHT22;18500;43.618;1.474;2023-03-21T13:10:29;18.80;1.00
31975;DHT22;18500;43.618;1.474;2023-03-21T13:21:45;17.80;1.00
31975;DHT22;18500;43.618;1.474;2023-03-21T13:24:27;17.60;1.00
31975;DHT22;18500;43.618;1.474;2023-03-21T13:32:17;17.90;1.00
31975;DHT22;18500;43.618;1.474;2023-03-21T13:38:03;17.30;1.00
31975;DHT22;18500;43.618;1.474;2023-03-21T13:40:37;17.30;1.00
31975;DHT22;18500;43.618;1.474;2023-03-21T13:43:04;17.40;1.00
31975;DHT22;18500;43.618;1.474;2023-03-21T13:45:53;17.50;1.00
31975;DHT22;18500;43.618;1.474;2023-03-21T13:48:28;18.00;1.00
31975;DHT22;18500;43.618;1.474;2023-03-21T13:51:02;18.10;1.00
31975;DHT22;18500;43.618;1.474;2023-03-21T13:53:41;18.30;1.00
31975;DHT22;18500;43.618;1.474;2023-03-21T14:01:23;21.40;1.00
31975;DHT22;18500;43.618;1.474;2023-03-21T14:03:55;20.40;1.00
31975;DHT22;18500;43.618;1.474;2023-03-21T14:06:22;21.10;1.00
31975;DHT22;18500;43.618;1.474;2023-03-21T14:08:50;21.30;1.00
31975;DHT22;18500;43.618;1.474;2023-03-21T14:11:18;22.90;1.00
31975;DHT22;18500;43.618;1.474;2023-03-21T14:13:45;21.80;1.00
31975;DHT22;18500;43.618;1.474;2023-03-21T14:16:16;20.90;1.00
31975;DHT22;18500;43.618;1.474;2023-03-21T14:18:52;21.10;1.00
31975;DHT22;18500;43.618;1.474;2023-03-21T14:21:27;21.60;1.00
31975;DHT22;18500;43.618;1.474;2023-03-21T14:24:13;20.50;1.00
31975;DHT22;18500;43.618;1.474;2023-03-21T14:26:47;20.20;1.00
31975;DHT22;18500;43.618;1.474;2023-03-21T14:29:25;20.20;1.00
31975;DHT22;18500;43.618;1.474;2023-03-21T14:31:55;20.20;1.00
31975;DHT22;18500;43.618;1.474;2023-03-21T14:34:22;20.20;1.00
31975;DHT22;18500;43.618;1.474;2023-03-21T14:36:48;19.60;1.00
31975;DHT22;18500;43.618;1.474;2023-03-21T14:39:19;19.30;1.00
31975;DHT22;18500;43.618;1.474;2023-03-21T14:41:50;19.10;1.00
31975;DHT22;18500;43.618;1.474;2023-03-21T14:44:24;18.90;1.00
31975;DHT22;18500;43.618;1.474;2023-03-21T14:47:01;18.80;1.00
31975;DHT22;18500;43.618;1.474;2023-03-21T14:49:29;18.90;1.00
31975;DHT22;18500;43.618;1.474;2023-03-21T14:51:59;19.10;1.00
31975;DHT22;18500;43.618;1.474;2023-03-21T14:54:25;19.00;1.00
31975;DHT22;18500;43.618;1.474;2023-03-21T14:57:03;19.10;1.00
31975;DHT22;18500;43.618;1.474;2023-03-21T14:59:33;19.40;1.00
31975;DHT22;18500;43.618;1.474;2023-03-21T15:02:03;19.30;1.00
31975;DHT22;18500;43.618;1.474;2023-03-21T15:04:31;19.10;1.00
31975;DHT22;18500;43.618;1.474;2023-03-21T15:07:00;18.70;1.00
31975;DHT22;18500;43.618;1.474;2023-03-21T15:09:32;18.50;1.00
31975;DHT22;18500;43.618;1.474;2023-03-21T15:12:00;18.40;1.00
31975;DHT22;18500;43.618;1.474;2023-03-21T15:14:33;18.20;1.00
31975;DHT22;18500;43.618;1.474;2023-03-21T15:17:01;18.20;1.00
31975;DHT22;18500;43.618;1.474;2023-03-21T15:19:34;18.20;1.00
31975;DHT22;18500;43.618;1.474;2023-03-21T15:22:09;18.20;1.00
31975;DHT22;18500;43.618;1.474;2023-03-21T15:24:46;18.30;1.00
31975;DHT22;18500;43.618;1.474;2023-03-21T15:27:15;18.10;1.00
31975;DHT22;18500;43.618;1.474;2023-03-21T15:29:42;18.00;1.00
31975;DHT22;18500;43.618;1.474;2023-03-21T15:32:15;17.80;1.00
31975;DHT22;18500;43.618;1.474;2023-03-21T15:34:41;17.80;1.00
31975;DHT22;18500;43.618;1.474;2023-03-21T15:37:13;17.90;1.00
31975;DHT22;18500;43.618;1.474;2023-03-21T15:39:40;17.70;1.00
31975;DHT22;18500;43.618;1.474;2023-03-21T15:42:27;17.40;1.00
31975;DHT22;18500;43.618;1.474;2023-03-21T15:44:56;17.30;1.00
31975;DHT22;18500;43.618;1.474;2023-03-21T15:48:20;17.10;1.00
31975;DHT22;18500;43.618;1.474;2023-03-21T15:50:38;16.90;1.00
31975;DHT22;18500;43.618;1.474;2023-03-21T15:53:10;16.80;1.00
31975;DHT22;18500;43.618;1.474;2023-03-21T15:55:47;16.70;1.00
31975;DHT22;18500;43.618;1.474;2023-03-21T15:58:22;16.60;1.00
31975;DHT22;18500;43.618;1.474;2023-03-21T16:00:54;16.60;1.00
31975;DHT22;18500;43.618;1.474;2023-03-21T16:03:26;16.60;1.00
31975;DHT22;18500;43.618;1.474;2023-03-21T16:08:32;16.70;1.00
31975;DHT22;18500;43.618;1.474;2023-03-21T16:11:28;16.70;1.00
31975;DHT22;18500;43.618;1.474;2023-03-21T16:13:54;16.50;1.00
31975;DHT22;18500;43.618;1.474;2023-03-21T16:16:23;16.40;1.00
31975;DHT22;18500;43.618;1.474;2023-03-21T16:18:49;16.30;1.00
31975;DHT22;18500;43.618;1.474;2023-03-21T16:21:18;16.30;1.00
31975;DHT22;18500;43.618;1.474;2023-03-21T16:23:45;16.30;1.00
31975;DHT22;18500;43.618;1.474;2023-03-21T16:26:19;16.30;1.00
31975;DHT22;18500;43.618;1.474;2023-03-21T16:28:46;16.30;1.00
31975;DHT22;18500;43.618;1.474;2023-03-21T16:31:17;16.30;1.00
31975;DHT22;18500;43.618;1.474;2023-03-21T16:33:43;16.40;1.00
31975;DHT22;18500;43.618;1.474;2023-03-21T16:36:15;16.50;1.00
31975;DHT22;18500;43.618;1.474;2023-03-21T16:38:46;16.30;1.00
31975;DHT22;18500;43.618;1.474;2023-03-21T16:41:14;16.30;1.00
31975;DHT22;18500;43.618;1.474;2023-03-21T16:43:41;16.40;1.00
31975;DHT22;18500;43.618;1.474;2023-03-21T16:46:24;16.60;1.00
31975;DHT22;18500;43.618;1.474;2023-03-21T16:48:53;16.80;1.00
31975;DHT22;18500;43.618;1.474;2023-03-21T16:51:21;16.60;1.00
31975;DHT22;18500;43.618;1.474;2023-03-21T16:53:48;16.50;1.00
31975;DHT22;18500;43.618;1.474;2023-03-21T16:56:22;16.50;1.00
31975;DHT22;18500;43.618;1.474;2023-03-21T16:58:48;16.60;1.00
31975;DHT22;18500;43.618;1.474;2023-03-21T17:01:16;16.60;1.00
31975;DHT22;18500;43.618;1.474;2023-03-21T17:03:44;16.60;1.00
31975;DHT22;18500;43.618;1.474;2023-03-21T17:06:18;16.80;1.00
31975;DHT22;18500;43.618;1.474;2023-03-21T17:08:44;16.70;1.00
31975;DHT22;18500;43.618;1.474;2023-03-21T17:11:18;16.40;1.00
31975;DHT22;18500;43.618;1.474;2023-03-21T17:13:52;16.10;1.00
31975;DHT22;18500;43.618;1.474;2023-03-21T17:16:21;15.70;1.00
31975;DHT22;18500;43.618;1.474;2023-03-21T17:18:47;15.50;1.00
31975;DHT22;18500;43.618;1.474;2023-03-21T17:21:22;15.20;1.00
31975;DHT22;18500;43.618;1.474;2023-03-21T17:23:49;15.10;1.00
31975;DHT22;18500;43.618;1.474;2023-03-21T17:26:26;14.90;1.00
31975;DHT22;18500;43.618;1.474;2023-03-21T17:28:53;14.80;1.00
31975;DHT22;18500;43.618;1.474;2023-03-21T17:31:23;14.70;1.00
31975;DHT22;18500;43.618;1.474;2023-03-21T17:33:49;14.50;1.00
31975;DHT22;18500;43.618;1.474;2023-03-21T17:36:29;14.50;1.00
31975;DHT22;18500;43.618;1.474;2023-03-21T17:38:55;14.40;1.00
31975;DHT22;18500;43.618;1.474;2023-03-21T17:41:22;14.40;1.00
31975;DHT22;18500;43.618;1.474;2023-03-21T17:43:47;14.30;1.00
31975;DHT22;18500;43.618;1.474;2023-03-21T17:46:20;14.20;1.00
31975;DHT22;18500;43.618;1.474;2023-03-21T17:48:49;14.10;1.00
31975;DHT22;18500;43.618;1.474;2023-03-21T17:51:15;13.90;1.00
31975;DHT22;18500;43.618;1.474;2023-03-21T17:53:43;13.80;1.00
31975;DHT22;18500;43.618;1.474;2023-03-21T17:56:20;13.60;1.00
31975;DHT22;18500;43.618;1.474;2023-03-21T17:58:46;13.30;1.00
31975;DHT22;18500;43.618;1.474;2023-03-21T18:01:12;13.10;1.00
31975;DHT22;18500;43.618;1.474;2023-03-21T18:03:38;13.00;1.00
31975;DHT22;18500;43.618;1.474;2023-03-21T18:06:04;12.80;1.00
31975;DHT22;18500;43.618;1.474;2023-03-21T18:08:30;12.70;1.00
31975;DHT22;18500;43.618;1.474;2023-03-21T18:10:56;12.60;1.00
31975;DHT22;18500;43.618;1.474;2023-03-21T18:13:22;12.50;1.00
31975;DHT22;18500;43.618;1.474;2023-03-21T18:15:47;12.40;1.00
31975;DHT22;18500;43.618;1.474;2023-03-21T18:18:15;12.30;1.00
31975;DHT22;18500;43.618;1.474;2023-03-21T18:20:41;12.20;1.00
31975;DHT22;18500;43.618;1.474;2023-03-21T18:23:06;12.00;1.00
31975;DHT22;18500;43.618;1.474;2023-03-21T18:25:32;12.20;1.00
31975;DHT22;18500;43.618;1.474;2023-03-21T18:27:58;12.70;1.00
31975;DHT22;18500;43.618;1.474;2023-03-21T18:30:24;13.00;1.00
31975;DHT22;18500;43.618;1.474;2023-03-21T18:32:49;13.20;1.00
31975;DHT22;18500;43.618;1.474;2023-03-21T18:35:17;13.20;1.00
31975;DHT22;18500;43.618;1.474;2023-03-21T18:37:44;13.20;1.00
31975;DHT22;18500;43.618;1.474;2023-03-21T18:40:11;13.10;1.00
31975;DHT22;18500;43.618;1.474;2023-03-21T18:42:38;12.80;1.00
31975;DHT22;18500;43.618;1.474;2023-03-21T18:45:06;12.50;1.00
31975;DHT22;18500;43.618;1.474;2023-03-21T18:47:32;12.30;1.00
31975;DHT22;18500;43.618;1.474;2023-03-21T18:49:58;12.10;1.00
31975;DHT22;18500;43.618;1.474;2023-03-21T18:52:24;12.10;1.00
31975;DHT22;18500;43.618;1.474;2023-03-21T18:54:52;12.20;1.00
31975;DHT22;18500;43.618;1.474;2023-03-21T18:57:18;12.00;1.00
31975;DHT22;18500;43.618;1.474;2023-03-21T18:59:45;11.90;1.00
31975;DHT22;18500;43.618;1.474;2023-03-21T19:02:13;11.90;1.00
31975;DHT22;18500;43.618;1.474;2023-03-21T19:04:39;11.80;1.00
31975;DHT22;18500;43.618;1.474;2023-03-21T19:07:05;11.70;1.00
31975;DHT22;18500;43.618;1.474;2023-03-21T19:09:32;11.50;1.00
31975;DHT22;18500;43.618;1.474;2023-03-21T19:11:59;11.50;1.00
31975;DHT22;18500;43.618;1.474;2023-03-21T19:14:25;11.40;1.00
31975;DHT22;18500;43.618;1.474;2023-03-21T19:16:50;11.40;1.00
31975;DHT22;18500;43.618;1.474;2023-03-21T19:19:16;11.20;1.00
31975;DHT22;18500;43.618;1.474;2023-03-21T19:21:44;11.00;1.00
31975;DHT22;18500;43.618;1.474;2023-03-21T19:24:12;10.80;1.00
31975;DHT22;18500;43.618;1.474;2023-03-21T19:26:39;10.70;1.00
31975;DHT22;18500;43.618;1.474;2023-03-21T19:29:04;10.50;1.00
31975;DHT22;18500;43.618;1.474;2023-03-21T19:31:31;10.40;1.00
31975;DHT22;18500;43.618;1.474;2023-03-21T19:33:57;10.40;1.00
31975;DHT22;18500;43.618;1.474;2023-03-21T19:36:23;10.30;1.00
31975;DHT22;18500;43.618;1.474;2023-03-21T19:38:49;10.20;1.00
31975;DHT22;18500;43.618;1.474;2023-03-21T19:41:15;10.10;1.00
31975;DHT22;18500;43.618;1.474;2023-03-21T19:43:41;10.10;1.00
31975;DHT22;18500;43.618;1.474;2023-03-21T19:46:06;10.00;1.00
31975;DHT22;18500;43.618;1.474;2023-03-21T19:48:33;10.00;1.00
31975;DHT22;18500;43.618;1.474;2023-03-21T19:50:59;10.00;1.00
31975;DHT22;18500;43.618;1.474;2023-03-21T19:53:27;9.90;1.00
31975;DHT22;18500;43.618;1.474;2023-03-21T19:55:54;9.90;1.00
31975;DHT22;18500;43.618;1.474;2023-03-21T19:58:19;9.90;1.00
31975;DHT22;18500;43.618;1.474;2023-03-21T20:00:46;10.00;1.00
31975;DHT22;18500;43.618;1.474;2023-03-21T20:03:13;10.10;1.00
31975;DHT22;18500;43.618;1.474;2023-03-21T20:05:38;10.00;1.00
31975;DHT22;18500;43.618;1.474;2023-03-21T20:08:04;10.00;1.00
31975;DHT22;18500;43.618;1.474;2023-03-21T20:10:30;10.00;1.00
31975;DHT22;18500;43.618;1.474;2023-03-21T20:12:56;10.00;1.00
31975;DHT22;18500;43.618;1.474;2023-03-21T20:15:22;10.00;1.00
31975;DHT22;18500;43.618;1.474;2023-03-21T20:17:48;10.00;1.00
31975;DHT22;18500;43.618;1.474;2023-03-21T20:20:15;9.90;1.00
31975;DHT22;18500;43.618;1.474;2023-03-21T20:22:44;9.90;1.00
31975;DHT22;18500;43.618;1.474;2023-03-21T20:25:12;9.90;1.00
31975;DHT22;18500;43.618;1.474;2023-03-21T20:27:39;9.90;1.00
31975;DHT22;18500;43.618;1.474;2023-03-21T20:30:12;9.90;1.00
31975;DHT22;18500;43.618;1.474;2023-03-21T20:32:40;9.70;1.00
31975;DHT22;18500;43.618;1.474;2023-03-21T20:35:08;9.60;1.00
31975;DHT22;18500;43.618;1.474;2023-03-21T20:37:35;9.60;1.00
31975;DHT22;18500;43.618;1.474;2023-03-21T20:40:02;9.50;1.00
31975;DHT22;18500;43.618;1.474;2023-03-21T20:42:33;9.50;1.00
31975;DHT22;18500;43.618;1.474;2023-03-21T20:44:59;9.50;1.00
31975;DHT22;18500;43.618;1.474;2023-03-21T20:47:24;9.50;1.00
31975;DHT22;18500;43.618;1.474;2023-03-21T20:49:50;9.40;1.00
31975;DHT22;18500;43.618;1.474;2023-03-21T20:52:16;9.40;1.00
31975;DHT22;18500;43.618;1.474;2023-03-21T20:54:43;9.40;1.00
31975;DHT22;18500;43.618;1.474;2023-03-21T20:57:10;9.40;1.00
31975;DHT22;18500;43.618;1.474;2023-03-21T20:59:35;9.40;1.00
31975;DHT22;18500;43.618;1.474;2023-03-21T21:02:01;9.40;1.00
31975;DHT22;18500;43.618;1.474;2023-03-21T21:04:28;9.40;1.00
31975;DHT22;18500;43.618;1.474;2023-03-21T21:06:55;9.40;1.00
31975;DHT22;18500;43.618;1.474;2023-03-21T21:09:21;9.40;1.00
31975;DHT22;18500;43.618;1.474;2023-03-21T21:11:47;9.30;1.00
31975;DHT22;18500;43.618;1.474;2023-03-21T21:14:14;9.30;1.00
31975;DHT22;18500;43.618;1.474;2023-03-21T21:16:40;9.30;1.00
31975;DHT22;18500;43.618;1.474;2023-03-21T21:19:06;9.20;1.00
31975;DHT22;18500;43.618;1.474;2023-03-21T21:21:33;9.10;1.00
31975;DHT22;18500;43.618;1.474;2023-03-21T21:23:58;9.10;1.00
31975;DHT22;18500;43.618;1.474;2023-03-21T21:26:24;9.10;1.00
31975;DHT22;18500;43.618;1.474;2023-03-21T21:28:50;9.10;1.00
31975;DHT22;18500;43.618;1.474;2023-03-21T21:31:17;9.00;1.00
31975;DHT22;18500;43.618;1.474;2023-03-21T21:33:45;9.00;1.00
31975;DHT22;18500;43.618;1.474;2023-03-21T21:36:13;8.90;1.00
31975;DHT22;18500;43.618;1.474;2023-03-21T21:38:40;8.90;1.00
31975;DHT22;18500;43.618;1.474;2023-03-21T21:41:06;8.90;1.00
31975;DHT22;18500;43.618;1.474;2023-03-21T21:43:35;8.80;1.00
31975;DHT22;18500;43.618;1.474;2023-03-21T21:46:00;8.80;1.00
31975;DHT22;18500;43.618;1.474;2023-03-21T21:48:26;8.80;1.00
31975;DHT22;18500;43.618;1.474;2023-03-21T21:50:52;8.80;1.00
